Aviation Digital Data Service (ADDS)

Output produced by METARs form (1928 UTC 27 May 2017)
found at http://aviationweather.gov/adds/metars/
 
KPBG 271739Z 2718/2818 12006KT P6SM SKC 
     FM280000 VRB03KT P6SM SKC 
     FM281500 12005KT P6SM SKC